Time;durP1;ratioP1;P1;durP2;ratioP2;P2;SDS_P1;SDS_P2;PMS_P1;PMS_P2;Temp;Humidity;BMP_temperature;BMP_pressure;BME280_temperature;BME280_humidity;BME280_pressure;Samples;Min_cycle;Max_cycle;Signal;HPM_P1;HPM_P2
2023/02/22 00:02:27;;;;;;;24.25;18.63;;;7.20;99.90;;;;;;4994863;28;20065;-60
2023/02/22 00:04:54;;;;;;;22.27;18.63;;;7.10;99.90;;;;;;4994952;28;20046;-57
2023/02/22 00:07:22;;;;;;;24.20;19.20;;;7.10;99.90;;;;;;4993773;28;20367;-60
2023/02/22 00:09:49;;;;;;;23.52;19.08;;;7.10;99.90;;;;;;4994816;28;20034;-60
2023/02/22 00:12:16;;;;;;;21.20;17.98;;;7.10;99.90;;;;;;4994596;28;20520;-58
2023/02/22 00:14:43;;;;;;;23.85;19.20;;;7.10;99.90;;;;;;4994625;28;20039;-60
2023/02/22 00:17:12;;;;;;;22.38;17.80;;;7.10;99.90;;;;;;4994521;28;20073;-58
2023/02/22 00:19:39;;;;;;;21.15;18.13;;;7.10;99.90;;;;;;4994357;28;20050;-60
2023/02/22 00:22:05;;;;;;;21.77;19.05;;;7.10;99.90;;;;;;4992925;28;20046;-59
2023/02/22 00:24:34;;;;;;;23.17;19.25;;;7.20;99.90;;;;;;4994373;28;20042;-58
2023/02/22 00:27:02;;;;;;;22.05;18.35;;;7.20;99.90;;;;;;4994436;28;20141;-59
2023/02/22 00:29:29;;;;;;;21.85;19.00;;;7.20;99.90;;;;;;4994403;28;20046;-60
2023/02/22 00:31:55;;;;;;;22.08;18.88;;;7.20;99.90;;;;;;4994278;28;20054;-60
2023/02/22 00:34:23;;;;;;;22.23;18.20;;;7.20;99.90;;;;;;4992372;28;20488;-57
2023/02/22 00:36:49;;;;;;;20.90;18.20;;;7.20;99.90;;;;;;4994127;28;20453;-60
2023/02/22 00:39:17;;;;;;;20.92;18.50;;;7.30;99.90;;;;;;4976718;28;20108;-57
2023/02/22 00:41:43;;;;;;;23.75;19.10;;;7.20;99.90;;;;;;4994564;28;20365;-59
2023/02/22 00:44:10;;;;;;;21.42;18.48;;;7.30;99.90;;;;;;4992771;28;20446;-58
2023/02/22 00:46:38;;;;;;;22.65;18.73;;;7.30;99.90;;;;;;4992824;28;20046;-59
2023/02/22 00:49:04;;;;;;;22.90;19.60;;;7.30;99.90;;;;;;4994177;28;20043;-59
2023/02/22 00:51:32;;;;;;;24.13;19.77;;;7.30;99.90;;;;;;4993131;28;20051;-59
2023/02/22 00:53:59;;;;;;;22.85;20.00;;;7.30;99.90;;;;;;4994192;28;20499;-60
2023/02/22 00:56:26;;;;;;;23.27;19.92;;;7.20;99.90;;;;;;4994075;28;20058;-57
2023/02/22 00:58:53;;;;;;;24.00;19.50;;;7.20;99.90;;;;;;4992851;28;20046;-61
2023/02/22 01:01:20;;;;;;;23.80;19.77;;;7.30;99.90;;;;;;4993991;28;20062;-56
2023/02/22 01:03:47;;;;;;;23.83;20.45;;;7.30;99.90;;;;;;4993651;28;20093;-58
2023/02/22 01:06:15;;;;;;;25.80;20.85;;;7.30;99.90;;;;;;4993560;28;20493;-58
2023/02/22 01:08:42;;;;;;;24.13;19.63;;;7.40;99.90;;;;;;4993410;28;20042;-58
2023/02/22 01:11:09;;;;;;;24.15;20.38;;;7.40;99.90;;;;;;4992190;28;20050;-57
2023/02/22 01:13:36;;;;;;;27.25;20.88;;;7.40;99.90;;;;;;4993573;28;20099;-61
2023/02/22 01:16:02;;;;;;;23.67;20.05;;;7.40;99.90;;;;;;4994053;28;20042;-60
2023/02/22 01:18:29;;;;;;;24.25;19.70;;;7.50;99.90;;;;;;4993239;28;20047;-58
2023/02/22 01:20:56;;;;;;;22.80;19.42;;;7.50;99.90;;;;;;4995884;28;20042;-57
2023/02/22 01:23:22;;;;;;;22.02;19.08;;;7.50;99.90;;;;;;4997222;28;20030;-59
2023/02/22 01:25:49;;;;;;;28.58;20.52;;;7.50;99.90;;;;;;4996031;28;20113;-59
2023/02/22 01:28:16;;;;;;;23.92;20.60;;;7.50;99.90;;;;;;4995913;28;20043;-58
2023/02/22 01:30:43;;;;;;;26.63;21.35;;;7.40;99.90;;;;;;4997182;28;20042;-55
2023/02/22 01:33:11;;;;;;;25.60;21.60;;;7.40;99.90;;;;;;4997319;28;20091;-57
2023/02/22 01:35:41;;;;;;;24.60;20.55;;;7.40;99.90;;;;;;4997519;28;20445;-60
2023/02/22 01:38:07;;;;;;;25.55;20.73;;;7.40;99.90;;;;;;4997581;28;20038;-59
2023/02/22 01:40:34;;;;;;;25.77;20.38;;;7.30;99.90;;;;;;4996275;28;20433;-58
2023/02/22 01:43:01;;;;;;;24.85;20.45;;;7.30;99.90;;;;;;4997269;28;20066;-60
2023/02/22 01:45:28;;;;;;;24.42;21.25;;;7.20;99.90;;;;;;4979900;28;20470;-59
2023/02/22 01:47:55;;;;;;;23.92;20.73;;;7.20;99.90;;;;;;4995766;28;20166;-60
2023/02/22 01:50:22;;;;;;;25.23;20.38;;;7.10;99.90;;;;;;4995410;28;20054;-58
2023/02/22 01:52:49;;;;;;;25.10;19.98;;;7.10;99.90;;;;;;4996909;28;20158;-59
2023/02/22 01:55:16;;;;;;;25.10;21.70;;;7.10;99.90;;;;;;4995807;28;20074;-58
2023/02/22 01:57:44;;;;;;;25.63;21.88;;;7.20;99.90;;;;;;4997209;28;20058;-59
2023/02/22 02:00:11;;;;;;;25.65;21.48;;;7.20;99.90;;;;;;4995580;28;20038;-59
2023/02/22 02:02:41;;;;;;;26.15;21.58;;;7.30;99.90;;;;;;4997022;28;20149;-57
2023/02/22 02:05:08;;;;;;;24.20;21.55;;;7.30;99.90;;;;;;4995817;28;20070;-59
2023/02/22 02:07:35;;;;;;;28.55;21.25;;;7.20;99.90;;;;;;4997185;28;20437;-57
2023/02/22 02:10:02;;;;;;;29.08;22.27;;;7.30;99.90;;;;;;4996914;28;20108;-59
2023/02/22 02:12:29;;;;;;;27.48;23.00;;;7.30;99.90;;;;;;4996485;28;20110;-58
2023/02/22 02:14:56;;;;;;;27.25;23.33;;;7.20;99.90;;;;;;4995868;28;20069;-59
2023/02/22 02:17:22;;;;;;;29.83;24.20;;;7.20;99.90;;;;;;4996614;28;20121;-55
2023/02/22 02:19:49;;;;;;;32.30;24.92;;;7.10;99.90;;;;;;4996709;28;20093;-59
2023/02/22 02:22:16;;;;;;;30.77;24.42;;;7.10;99.90;;;;;;4996626;28;20419;-59
2023/02/22 02:24:43;;;;;;;30.00;24.70;;;7.10;99.90;;;;;;4995332;28;20054;-58
2023/02/22 02:27:09;;;;;;;30.58;24.77;;;7.20;99.90;;;;;;4996702;28;20064;-58
2023/02/22 02:29:36;;;;;;;31.25;25.27;;;7.20;99.90;;;;;;4995695;28;20095;-60
2023/02/22 02:32:03;;;;;;;30.00;24.85;;;7.20;99.90;;;;;;4996203;28;20050;-58
2023/02/22 02:34:30;;;;;;;32.17;25.83;;;7.20;99.90;;;;;;4995414;28;20097;-57
2023/02/22 02:36:56;;;;;;;30.73;25.17;;;7.30;99.90;;;;;;4996045;28;20038;-57
2023/02/22 02:39:23;;;;;;;30.95;26.02;;;7.30;99.90;;;;;;4996318;28;20105;-59
2023/02/22 02:41:50;;;;;;;31.92;26.05;;;7.30;99.90;;;;;;4994671;28;20069;-54
2023/02/22 02:44:21;;;;;;;34.13;26.30;;;7.30;99.90;;;;;;4996044;28;20383;-58
2023/02/22 02:46:48;;;;;;;33.95;25.77;;;7.30;99.90;;;;;;4996088;28;20039;-61
2023/02/22 02:49:14;;;;;;;34.20;26.77;;;7.30;99.90;;;;;;4996104;28;20034;-57
2023/02/22 02:51:43;;;;;;;32.22;26.20;;;7.30;99.90;;;;;;4994980;28;20060;-60
2023/02/22 02:54:10;;;;;;;32.30;27.02;;;7.30;99.90;;;;;;4995786;28;20105;-58
2023/02/22 02:56:36;;;;;;;31.08;25.40;;;7.30;99.90;;;;;;4994674;28;20054;-59
2023/02/22 02:59:03;;;;;;;33.05;26.35;;;7.40;99.90;;;;;;4994770;28;20043;-59
2023/02/22 03:01:32;;;;;;;34.13;27.02;;;7.40;99.90;;;;;;4995661;28;20437;-59
2023/02/22 03:03:59;;;;;;;32.42;26.05;;;7.40;99.90;;;;;;4995365;28;20501;-58
2023/02/22 03:06:25;;;;;;;33.50;26.63;;;7.40;99.90;;;;;;4994198;28;20043;-58
2023/02/22 03:08:52;;;;;;;32.95;25.92;;;7.40;99.90;;;;;;4995704;28;20069;-55
2023/02/22 03:11:19;;;;;;;34.95;26.45;;;7.50;99.90;;;;;;4995648;28;20038;-59
2023/02/22 03:13:46;;;;;;;32.75;26.42;;;7.50;99.90;;;;;;4994610;28;20060;-53
2023/02/22 03:16:13;;;;;;;35.20;27.85;;;7.50;99.90;;;;;;4995796;28;20557;-57
2023/02/22 03:18:40;;;;;;;36.22;27.13;;;7.50;99.90;;;;;;4994193;28;20043;-57
2023/02/22 03:21:07;;;;;;;34.15;26.67;;;7.50;99.90;;;;;;4995466;28;20049;-58
2023/02/22 03:23:34;;;;;;;35.35;26.98;;;7.50;99.90;;;;;;4995523;28;20034;-59
2023/02/22 03:26:01;;;;;;;34.10;27.00;;;7.50;99.90;;;;;;4995404;28;20049;-59
2023/02/22 03:28:29;;;;;;;33.15;27.65;;;7.50;99.90;;;;;;4993959;28;20499;-58
2023/02/22 03:30:58;;;;;;;34.63;27.13;;;7.50;99.90;;;;;;4995442;28;20462;-56
2023/02/22 03:33:26;;;;;;;34.58;27.00;;;7.50;99.90;;;;;;4977622;28;20499;-60
2023/02/22 03:35:55;;;;;;;35.50;27.73;;;7.50;99.90;;;;;;4995403;28;20501;-54
2023/02/22 03:38:22;;;;;;;33.85;27.70;;;7.40;99.90;;;;;;4993898;28;20054;-59
2023/02/22 03:40:49;;;;;;;36.90;28.45;;;7.40;99.90;;;;;;4993735;28;20057;-55
2023/02/22 03:43:16;;;;;;;33.53;27.92;;;7.40;99.90;;;;;;4994007;28;20047;-53
2023/02/22 03:45:44;;;;;;;33.67;28.05;;;7.40;99.90;;;;;;4993719;28;20049;-59
2023/02/22 03:48:11;;;;;;;37.15;29.48;;;7.40;99.90;;;;;;4994910;28;20481;-60
2023/02/22 03:50:40;;;;;;;34.60;27.88;;;7.40;99.90;;;;;;4993788;28;20049;-60
2023/02/22 03:53:07;;;;;;;36.58;29.33;;;7.40;99.90;;;;;;4977279;28;20046;-58
2023/02/22 03:55:37;;;;;;;36.47;29.60;;;7.40;99.90;;;;;;4993563;28;20043;-57
2023/02/22 03:58:04;;;;;;;35.35;28.73;;;7.40;99.90;;;;;;4994025;28;20056;-60
2023/02/22 04:00:31;;;;;;;34.25;28.85;;;7.40;99.90;;;;;;4993370;28;20039;-59
2023/02/22 04:02:58;;;;;;;36.75;30.25;;;7.30;99.90;;;;;;4993389;28;20046;-60
2023/02/22 04:05:25;;;;;;;38.20;30.15;;;7.30;99.90;;;;;;4994892;28;20470;-60
2023/02/22 04:07:52;;;;;;;39.45;30.95;;;7.30;99.90;;;;;;4993712;28;20039;-58
2023/02/22 04:10:19;;;;;;;35.97;29.55;;;7.30;99.90;;;;;;4993332;28;20053;-58
2023/02/22 04:12:46;;;;;;;37.28;30.98;;;7.40;99.90;;;;;;4994703;28;20051;-59
2023/02/22 04:15:13;;;;;;;40.75;30.38;;;7.40;99.90;;;;;;4994715;28;20481;-60
2023/02/22 04:17:41;;;;;;;36.05;31.08;;;7.40;99.90;;;;;;4993388;28;20050;-58
2023/02/22 04:20:12;;;;;;;35.30;30.13;;;7.40;99.90;;;;;;4992685;28;20045;-60
2023/02/22 04:23:01;;;;;;;37.30;31.35;;;7.30;99.90;;;;;;4994181;28;20129;-55
2023/02/22 04:25:29;;;;;;;40.63;32.83;;;7.30;99.90;;;;;;4993104;28;20042;-59
2023/02/22 04:27:56;;;;;;;39.88;32.08;;;7.30;99.90;;;;;;4994442;28;20121;-60
2023/02/22 04:30:35;;;;;;;40.70;32.25;;;7.30;99.90;;;;;;4993368;28;20046;-60
2023/02/22 04:33:06;;;;;;;39.17;33.53;;;7.30;99.90;;;;;;4993052;28;20062;-60
2023/02/22 04:35:34;;;;;;;43.10;34.15;;;7.30;99.90;;;;;;4992998;28;20053;-60
2023/02/22 04:38:03;;;;;;;39.13;33.15;;;7.30;99.90;;;;;;4992841;28;20046;-60
2023/02/22 04:40:30;;;;;;;38.58;32.92;;;7.30;99.90;;;;;;5009138;28;20050;-58
2023/02/22 04:42:59;;;;;;;40.15;34.30;;;7.30;99.90;;;;;;4993057;28;20049;-60
2023/02/22 04:45:26;;;;;;;40.70;34.00;;;7.30;99.90;;;;;;5009352;28;20053;-59
2023/02/22 04:47:53;;;;;;;38.63;32.15;;;7.30;99.90;;;;;;4993143;28;20560;-59
2023/02/22 04:50:20;;;;;;;43.70;33.70;;;7.30;99.90;;;;;;4994384;28;20077;-57
2023/02/22 04:52:47;;;;;;;42.03;33.72;;;7.30;99.90;;;;;;4994132;28;20045;-59
2023/02/22 04:55:15;;;;;;;42.38;33.92;;;7.30;99.90;;;;;;4997029;28;20393;-60
2023/02/22 04:57:42;;;;;;;42.45;35.05;;;7.30;99.90;;;;;;4998505;28;20129;-59
2023/02/22 05:00:10;;;;;;;42.05;34.88;;;7.30;99.90;;;;;;4997013;28;20060;-59
2023/02/22 05:02:37;;;;;;;41.13;34.05;;;7.30;99.90;;;;;;4996676;28;20042;-59
2023/02/22 05:05:04;;;;;;;42.55;33.50;;;7.30;99.90;;;;;;4998134;28;20054;-60
2023/02/22 05:07:31;;;;;;;43.75;35.50;;;7.30;99.90;;;;;;4998319;28;20098;-59
2023/02/22 05:09:57;;;;;;;41.25;33.67;;;7.30;99.90;;;;;;4998022;28;20493;-57
2023/02/22 05:12:24;;;;;;;41.80;33.65;;;7.40;99.90;;;;;;4997745;28;20105;-59
2023/02/22 05:14:51;;;;;;;42.90;34.60;;;7.30;99.90;;;;;;4997871;28;20066;-60
2023/02/22 05:17:18;;;;;;;41.28;33.45;;;7.30;99.90;;;;;;4996819;28;20054;-60
2023/02/22 05:19:46;;;;;;;41.70;33.25;;;7.30;99.90;;;;;;4997881;28;20153;-58
2023/02/22 05:22:13;;;;;;;38.63;33.00;;;7.30;99.90;;;;;;4997942;28;20034;-60
2023/02/22 05:24:39;;;;;;;41.90;34.72;;;7.30;99.90;;;;;;4998087;28;20042;-57
2023/02/22 05:27:06;;;;;;;42.97;35.50;;;7.30;99.90;;;;;;4997696;28;20046;-57
2023/02/22 05:29:33;;;;;;;45.95;35.33;;;7.30;99.90;;;;;;4997483;28;20093;-60
2023/02/22 05:32:01;;;;;;;39.65;34.25;;;7.30;99.90;;;;;;4996158;28;20049;-59
2023/02/22 05:34:28;;;;;;;42.40;36.20;;;7.40;99.90;;;;;;4997304;28;20078;-59
2023/02/22 05:36:55;;;;;;;44.92;36.05;;;7.30;99.90;;;;;;4997625;28;20520;-59
2023/02/22 05:39:21;;;;;;;43.50;34.97;;;7.40;99.90;;;;;;4997094;28;20370;-59
2023/02/22 05:41:48;;;;;;;45.28;35.53;;;7.40;99.90;;;;;;4997223;28;20038;-59
2023/02/22 05:44:15;;;;;;;41.55;35.15;;;7.40;99.90;;;;;;4996179;28;20385;-60
2023/02/22 05:46:42;;;;;;;44.92;35.67;;;7.40;99.90;;;;;;4997301;28;20041;-59
2023/02/22 05:49:08;;;;;;;42.10;34.88;;;7.40;99.90;;;;;;4997219;28;20041;-59
2023/02/22 05:51:35;;;;;;;41.10;34.22;;;7.40;99.90;;;;;;4997131;28;20039;-60
2023/02/22 05:54:02;;;;;;;41.10;32.80;;;7.40;99.90;;;;;;4996593;28;20046;-59
2023/02/22 05:56:29;;;;;;;42.53;34.20;;;7.40;99.90;;;;;;4997221;28;20105;-59
2023/02/22 05:58:56;;;;;;;42.75;33.78;;;7.40;99.90;;;;;;4997057;28;20042;-60
2023/02/22 06:01:22;;;;;;;45.45;34.88;;;7.40;99.90;;;;;;4997171;28;20042;-60
2023/02/22 06:03:49;;;;;;;37.60;31.45;;;7.40;99.90;;;;;;4996449;28;20070;-59
2023/02/22 06:06:16;;;;;;;41.63;33.40;;;7.30;99.90;;;;;;4997255;28;20038;-60
2023/02/22 06:08:43;;;;;;;41.38;33.13;;;7.30;99.90;;;;;;4996848;28;20073;-59
2023/02/22 06:11:09;;;;;;;44.25;32.90;;;7.30;99.90;;;;;;4997234;28;20050;-59
2023/02/22 06:13:36;;;;;;;41.90;33.25;;;7.30;99.90;;;;;;4996614;28;20416;-59
2023/02/22 06:16:03;;;;;;;42.20;32.65;;;7.40;99.90;;;;;;4996639;28;20131;-60
2023/02/22 06:18:30;;;;;;;39.28;32.35;;;7.40;99.90;;;;;;4996352;28;20047;-57
2023/02/22 06:20:56;;;;;;;43.42;33.25;;;7.40;99.90;;;;;;4996173;28;20100;-60
2023/02/22 06:23:23;;;;;;;39.72;32.28;;;7.40;99.90;;;;;;4994950;28;20050;-60
2023/02/22 06:25:50;;;;;;;42.20;32.83;;;7.40;99.90;;;;;;4994987;28;20068;-58
2023/02/22 06:28:17;;;;;;;42.28;32.50;;;7.40;99.90;;;;;;4996327;28;20046;-59
2023/02/22 06:30:43;;;;;;;41.60;33.40;;;7.40;99.90;;;;;;4996702;28;20058;-58
2023/02/22 06:33:10;;;;;;;42.88;34.05;;;7.40;99.90;;;;;;4995455;28;20073;-60
2023/02/22 06:35:37;;;;;;;41.53;32.47;;;7.40;99.90;;;;;;4996574;28;20539;-60
2023/02/22 06:38:04;;;;;;;43.13;34.45;;;7.40;99.90;;;;;;4996275;28;20054;-59
2023/02/22 06:40:30;;;;;;;40.63;33.22;;;7.50;99.90;;;;;;4995997;28;20038;-59
2023/02/22 06:42:58;;;;;;;41.13;33.08;;;7.40;99.90;;;;;;4995735;28;20544;-59
2023/02/22 06:45:25;;;;;;;44.90;33.65;;;7.40;99.90;;;;;;4995991;28;20089;-59
2023/02/22 06:47:52;;;;;;;42.42;32.75;;;7.40;99.90;;;;;;4995741;28;20046;-59
2023/02/22 06:50:19;;;;;;;50.72;32.65;;;7.40;99.90;;;;;;4996233;28;20046;-56
2023/02/22 06:52:46;;;;;;;41.40;32.28;;;7.40;99.90;;;;;;4994898;28;20444;-60
2023/02/22 06:55:13;;;;;;;40.80;31.52;;;7.40;99.90;;;;;;4996481;28;20043;-61
2023/02/22 06:57:40;;;;;;;40.10;31.23;;;7.50;99.90;;;;;;4996433;28;20046;-59
2023/02/22 07:00:06;;;;;;;41.92;31.85;;;7.50;99.90;;;;;;4994749;28;20531;-60
2023/02/22 07:02:33;;;;;;;38.90;30.50;;;7.50;99.90;;;;;;4996107;28;20101;-59
2023/02/22 07:05:00;;;;;;;40.90;31.00;;;7.50;99.90;;;;;;4995712;28;20050;-59
2023/02/22 07:07:28;;;;;;;39.58;30.55;;;7.50;99.90;;;;;;4994826;28;20440;-59
2023/02/22 07:09:55;;;;;;;39.00;30.70;;;7.50;99.90;;;;;;4995601;28;20034;-60
2023/02/22 07:12:22;;;;;;;41.90;31.00;;;7.50;99.90;;;;;;4995384;28;20053;-60
2023/02/22 07:14:48;;;;;;;39.30;29.00;;;7.50;99.90;;;;;;4995780;28;20378;-63
2023/02/22 07:17:15;;;;;;;38.63;29.10;;;7.50;99.90;;;;;;4995031;28;20046;-58
2023/02/22 07:19:42;;;;;;;38.60;28.85;;;7.50;99.90;;;;;;4995233;28;20100;-61
2023/02/22 07:22:08;;;;;;;39.22;27.98;;;7.60;99.90;;;;;;4995390;28;20081;-61
2023/02/22 07:24:35;;;;;;;39.22;29.80;;;7.50;99.90;;;;;;4995629;28;20034;-60
2023/02/22 07:27:02;;;;;;;38.60;28.35;;;7.60;99.90;;;;;;4995221;28;20489;-61
2023/02/22 07:29:30;;;;;;;38.95;28.25;;;7.60;99.90;;;;;;4995339;28;20038;-59
2023/02/22 07:31:57;;;;;;;40.80;28.55;;;7.50;99.90;;;;;;4995070;28;20050;-59
2023/02/22 07:34:23;;;;;;;42.45;29.13;;;7.60;99.90;;;;;;4994718;28;20064;-60
2023/02/22 07:36:50;;;;;;;37.85;28.63;;;7.60;99.90;;;;;;4994939;28;20042;-56
2023/02/22 07:39:17;;;;;;;39.33;28.83;;;7.60;99.90;;;;;;4995077;28;20038;-60
2023/02/22 07:41:43;;;;;;;38.75;28.45;;;7.60;99.90;;;;;;4995396;28;20096;-60
2023/02/22 07:44:20;;;;;;;38.00;27.92;;;7.60;99.90;;;;;;4979250;28;20050;-60
2023/02/22 07:46:48;;;;;;;38.13;27.52;;;7.60;99.90;;;;;;4994767;28;20050;-59
2023/02/22 07:49:14;;;;;;;38.72;26.88;;;7.60;99.90;;;;;;4994902;28;20528;-57
2023/02/22 07:51:41;;;;;;;39.47;28.33;;;7.60;99.90;;;;;;4994903;28;20448;-59
2023/02/22 07:54:08;;;;;;;39.53;27.60;;;7.70;99.90;;;;;;4995059;28;20053;-59
2023/02/22 07:56:34;;;;;;;40.15;27.92;;;7.70;99.90;;;;;;4995010;28;20100;-59
2023/02/22 07:59:01;;;;;;;35.63;26.52;;;7.70;99.90;;;;;;4994755;28;20122;-59
2023/02/22 08:01:28;;;;;;;36.55;26.17;;;7.70;99.90;;;;;;4993267;28;20401;-58
2023/02/22 08:03:55;;;;;;;36.42;25.65;;;7.80;99.90;;;;;;4994394;28;20562;-58
2023/02/22 08:06:24;;;;;;;34.10;25.40;;;7.80;99.90;;;;;;4994391;28;20125;-57
2023/02/22 08:08:51;;;;;;;36.95;26.30;;;7.80;99.90;;;;;;4994540;28;20073;-57
2023/02/22 08:11:17;;;;;;;34.83;24.48;;;7.90;99.90;;;;;;4994825;28;20046;-58
2023/02/22 08:13:45;;;;;;;33.67;24.65;;;7.90;99.90;;;;;;4993873;28;20046;-59
2023/02/22 08:16:11;;;;;;;35.58;24.00;;;7.90;99.90;;;;;;4992764;28;20073;-56
2023/02/22 08:18:39;;;;;;;32.72;23.45;;;7.90;99.90;;;;;;4993919;28;20046;-59
2023/02/22 08:21:06;;;;;;;32.15;23.45;;;7.90;99.90;;;;;;4993461;28;20049;-61
2023/02/22 08:23:33;;;;;;;31.30;22.15;;;7.90;99.90;;;;;;4994070;28;20046;-59
2023/02/22 08:26:00;;;;;;;27.10;19.50;;;8.00;99.90;;;;;;4992116;28;20061;-58
2023/02/22 08:28:26;;;;;;;28.25;19.50;;;8.00;99.90;;;;;;4990420;28;20046;-56
2023/02/22 08:30:53;;;;;;;30.30;19.20;;;8.00;99.90;;;;;;4990572;28;20097;-59
2023/02/22 08:33:20;;;;;;;27.90;19.42;;;8.00;99.90;;;;;;4990132;28;20042;-57
2023/02/22 08:35:50;;;;;;;25.40;18.00;;;8.00;99.90;;;;;;4992074;28;20046;-58
2023/02/22 08:38:17;;;;;;;22.70;17.13;;;8.00;99.90;;;;;;4991848;28;20386;-58
2023/02/22 08:40:44;;;;;;;23.70;16.65;;;8.00;99.90;;;;;;4992231;28;20497;-59
2023/02/22 08:43:12;;;;;;;23.70;16.77;;;8.00;99.90;;;;;;4990441;28;20473;-59
2023/02/22 08:45:39;;;;;;;22.25;16.15;;;8.00;99.90;;;;;;4992436;28;20438;-57
2023/02/22 08:48:05;;;;;;;21.60;15.40;;;8.00;99.90;;;;;;4992773;28;20042;-57
2023/02/22 08:50:32;;;;;;;28.98;18.20;;;8.00;99.90;;;;;;4992633;28;20046;-57
2023/02/22 08:52:59;;;;;;;23.25;15.43;;;8.00;99.90;;;;;;4993311;28;20046;-55
2023/02/22 08:55:26;;;;;;;22.10;15.48;;;8.10;99.90;;;;;;4993107;28;20182;-57
2023/02/22 08:57:52;;;;;;;23.30;14.88;;;8.10;99.90;;;;;;4993376;28;20074;-60
2023/02/22 09:00:19;;;;;;;20.50;13.98;;;8.10;99.90;;;;;;4993303;28;20113;-57
2023/02/22 09:02:46;;;;;;;18.10;13.15;;;8.10;99.90;;;;;;4993266;28;20045;-61
2023/02/22 09:05:13;;;;;;;18.40;12.48;;;8.10;99.90;;;;;;4993037;28;20133;-60
2023/02/22 09:07:42;;;;;;;17.50;12.50;;;8.10;99.90;;;;;;4993401;28;20121;-60
2023/02/22 09:10:09;;;;;;;38.45;25.67;;;8.10;99.90;;;;;;4993113;28;20490;-55
2023/02/22 09:12:36;;;;;;;41.92;32.17;;;8.10;99.90;;;;;;4992856;28;20042;-59
2023/02/22 09:15:02;;;;;;;17.77;12.70;;;8.10;99.90;;;;;;4992950;28;20456;-59
2023/02/22 09:17:29;;;;;;;30.73;25.30;;;8.20;99.90;;;;;;4991823;28;20045;-58
2023/02/22 09:19:56;;;;;;;17.67;11.48;;;8.20;99.90;;;;;;4993190;28;20528;-58
2023/02/22 09:22:23;;;;;;;16.08;9.98;;;8.20;99.90;;;;;;4991544;28;20094;-58
2023/02/22 09:24:49;;;;;;;12.40;9.25;;;8.20;99.90;;;;;;4993119;28;20046;-58
2023/02/22 09:27:18;;;;;;;13.35;8.73;;;8.20;99.90;;;;;;4993096;28;20044;-59
2023/02/22 09:29:45;;;;;;;11.32;8.10;;;8.30;99.90;;;;;;4993123;28;20048;-57
2023/02/22 09:32:12;;;;;;;12.02;8.57;;;8.30;99.90;;;;;;4992823;28;20046;-59
2023/02/22 09:34:44;;;;;;;12.05;8.70;;;8.40;99.90;;;;;;4993232;28;20064;-59
2023/02/22 09:37:11;;;;;;;14.18;9.15;;;8.30;99.90;;;;;;4992735;28;20046;-58
2023/02/22 09:39:38;;;;;;;11.35;8.45;;;8.30;99.90;;;;;;4994327;28;20101;-57
2023/02/22 09:42:05;;;;;;;11.48;8.68;;;8.30;99.90;;;;;;4996192;28;20042;-56
2023/02/22 09:44:35;;;;;;;12.93;8.63;;;8.40;99.90;;;;;;4996655;28;20038;-53
2023/02/22 09:47:01;;;;;;;11.43;9.35;;;8.40;99.90;;;;;;4996396;28;20043;-56
2023/02/22 09:49:28;;;;;;;13.57;9.35;;;8.40;99.90;;;;;;4995817;28;20117;-58
2023/02/22 09:51:55;;;;;;;12.40;9.50;;;8.50;99.90;;;;;;4995801;28;20046;-57
2023/02/22 09:54:21;;;;;;;13.32;10.35;;;8.60;99.90;;;;;;4995143;28;20042;-59
2023/02/22 09:56:48;;;;;;;12.77;10.15;;;8.60;99.90;;;;;;4996395;28;20493;-58
2023/02/22 09:59:17;;;;;;;11.68;9.68;;;8.70;99.90;;;;;;4996589;28;20409;-58
2023/02/22 10:01:44;;;;;;;12.73;10.38;;;8.70;99.90;;;;;;4996291;28;20205;-59
2023/02/22 10:04:11;;;;;;;13.10;10.02;;;8.80;99.90;;;;;;4992356;28;20051;-59
2023/02/22 10:06:38;;;;;;;12.25;9.52;;;8.80;99.90;;;;;;4995850;28;20038;-58
2023/02/22 10:09:06;;;;;;;15.02;11.00;;;8.80;99.90;;;;;;4996075;28;20061;-57
2023/02/22 10:11:33;;;;;;;13.05;10.57;;;8.80;99.90;;;;;;4996363;28;20044;-58
2023/02/22 10:14:00;;;;;;;15.68;11.15;;;8.80;99.90;;;;;;4996572;28;20470;-58
2023/02/22 10:16:27;;;;;;;14.45;11.13;;;8.80;99.90;;;;;;4996402;28;20046;-59
2023/02/22 10:18:55;;;;;;;14.05;10.35;;;8.90;99.90;;;;;;4994901;28;20638;-58
2023/02/22 10:21:22;;;;;;;15.85;11.60;;;8.90;99.90;;;;;;4996146;28;20042;-57
2023/02/22 10:23:49;;;;;;;17.75;12.23;;;8.90;99.90;;;;;;4996286;28;20046;-58
2023/02/22 10:26:16;;;;;;;16.00;11.90;;;9.00;99.90;;;;;;4996353;28;20070;-54
2023/02/22 10:28:43;;;;;;;17.70;12.35;;;8.90;99.90;;;;;;4995300;28;20061;-58
2023/02/22 10:31:10;;;;;;;15.70;12.32;;;9.00;99.90;;;;;;4995923;28;20114;-59
2023/02/22 10:33:37;;;;;;;17.65;13.95;;;9.00;99.90;;;;;;4995886;28;20401;-57
2023/02/22 10:36:03;;;;;;;15.65;13.20;;;9.00;99.90;;;;;;4995861;28;20050;-56
2023/02/22 10:38:30;;;;;;;17.52;13.23;;;9.00;99.90;;;;;;4995920;28;20038;-56
2023/02/22 10:40:58;;;;;;;20.98;13.52;;;9.00;99.90;;;;;;4997185;28;20041;-59
2023/02/22 10:43:24;;;;;;;19.98;15.07;;;9.00;99.90;;;;;;4995781;28;20047;-56
2023/02/22 10:45:52;;;;;;;18.33;14.88;;;8.90;99.90;;;;;;4994838;28;20050;-58
2023/02/22 10:48:19;;;;;;;20.92;15.00;;;8.90;99.90;;;;;;4995873;28;20042;-56
2023/02/22 10:50:46;;;;;;;22.83;14.73;;;8.90;99.90;;;;;;4994837;28;20046;-55
2023/02/22 10:53:16;;;;;;;20.20;15.50;;;9.00;99.90;;;;;;4994938;28;20055;-56
2023/02/22 10:55:43;;;;;;;19.48;15.25;;;9.00;99.90;;;;;;4995486;28;20038;-56
2023/02/22 10:58:10;;;;;;;20.67;15.90;;;9.00;99.90;;;;;;4995927;28;20405;-57
2023/02/22 11:00:36;;;;;;;21.85;16.05;;;9.00;99.90;;;;;;4994843;28;20096;-58
2023/02/22 11:03:03;;;;;;;23.15;15.55;;;9.10;99.90;;;;;;4995480;28;20101;-58
2023/02/22 11:05:30;;;;;;;21.90;16.05;;;9.10;99.90;;;;;;4995190;28;20050;-53
2023/02/22 11:07:57;;;;;;;24.50;14.85;;;9.10;99.90;;;;;;4993951;28;20397;-55
2023/02/22 11:10:26;;;;;;;22.60;16.70;;;9.20;99.90;;;;;;4995428;28;20080;-54
2023/02/22 11:12:52;;;;;;;19.83;15.77;;;9.30;99.90;;;;;;4993847;28;20043;-54
2023/02/22 11:15:21;;;;;;;20.98;15.60;;;9.40;99.90;;;;;;4991201;28;20073;-54
2023/02/22 11:17:47;;;;;;;21.05;15.23;;;9.40;99.90;;;;;;4990360;28;20042;-57
2023/02/22 11:20:14;;;;;;;19.42;15.40;;;9.50;99.90;;;;;;4995412;28;20049;-59
2023/02/22 11:22:41;;;;;;;19.67;14.95;;;9.60;99.90;;;;;;4994251;28;20163;-56
2023/02/22 11:25:08;;;;;;;19.30;15.45;;;9.70;99.90;;;;;;4988693;28;20413;-58
2023/02/22 11:27:37;;;;;;;20.83;16.40;;;9.80;99.90;;;;;;4989438;28;20042;-57
2023/02/22 11:30:04;;;;;;;18.48;14.95;;;9.80;99.90;;;;;;4990165;28;20046;-58
2023/02/22 11:32:31;;;;;;;18.83;14.93;;;9.80;99.90;;;;;;4989594;28;20064;-59
2023/02/22 11:34:58;;;;;;;18.23;14.10;;;9.90;99.90;;;;;;4990014;28;20042;-54
2023/02/22 11:37:37;;;;;;;17.85;13.02;;;9.90;99.90;;;;;;4990002;28;20405;-58
2023/02/22 11:40:04;;;;;;;16.33;12.52;;;9.90;99.90;;;;;;4984325;28;20050;-58
2023/02/22 11:42:31;;;;;;;26.90;12.48;;;9.80;99.90;;;;;;4989765;28;20092;-59
2023/02/22 11:44:58;;;;;;;17.25;12.25;;;9.80;99.90;;;;;;4987540;28;20494;-57
2023/02/22 11:47:25;;;;;;;17.58;12.88;;;9.70;99.90;;;;;;4989539;28;20130;-56
2023/02/22 11:49:52;;;;;;;22.08;16.23;;;9.70;99.90;;;;;;4988929;28;20490;-57
2023/02/22 11:52:19;;;;;;;19.25;13.57;;;9.60;99.90;;;;;;4987349;28;20049;-58
2023/02/22 11:54:45;;;;;;;16.75;12.85;;;9.60;99.90;;;;;;4988841;28;20049;-56
2023/02/22 11:57:15;;;;;;;19.25;12.85;;;9.60;99.90;;;;;;4981929;28;20378;-58
2023/02/22 11:59:41;;;;;;;16.25;13.15;;;9.60;99.90;;;;;;4989609;28;20485;-57
2023/02/22 12:02:08;;;;;;;17.48;12.95;;;9.60;99.90;;;;;;4988898;28;20072;-56
2023/02/22 12:04:35;;;;;;;14.90;11.82;;;9.70;99.90;;;;;;4983068;28;20129;-56
2023/02/22 12:07:02;;;;;;;15.63;11.15;;;9.70;99.90;;;;;;4991383;28;20121;-56
2023/02/22 12:09:31;;;;;;;13.75;11.25;;;9.70;99.90;;;;;;4994187;28;20039;-59
2023/02/22 12:11:58;;;;;;;14.15;11.60;;;9.70;99.90;;;;;;4987400;28;20134;-57
2023/02/22 12:14:25;;;;;;;14.38;11.35;;;9.70;99.90;;;;;;4993926;28;20100;-57
2023/02/22 12:16:53;;;;;;;15.93;11.52;;;9.70;99.90;;;;;;4994070;28;20046;-57
2023/02/22 12:19:20;;;;;;;15.38;11.25;;;9.70;99.90;;;;;;4993475;28;20042;-54
2023/02/22 12:21:47;;;;;;;14.80;12.27;;;9.70;99.90;;;;;;4993800;28;20049;-58
2023/02/22 12:24:15;;;;;;;15.10;11.52;;;9.60;99.90;;;;;;4993674;28;20038;-59
2023/02/22 12:26:42;;;;;;;14.40;11.15;;;9.60;99.90;;;;;;4993942;28;20476;-58
2023/02/22 12:29:08;;;;;;;13.73;10.85;;;9.60;99.90;;;;;;4993684;28;20511;-58
2023/02/22 12:31:35;;;;;;;13.40;11.07;;;9.60;99.90;;;;;;4993165;28;20072;-56
2023/02/22 12:34:02;;;;;;;13.23;10.38;;;9.60;99.90;;;;;;4993962;28;20101;-59
2023/02/22 12:36:31;;;;;;;15.13;11.15;;;9.60;99.90;;;;;;4993326;28;20070;-59
2023/02/22 12:38:58;;;;;;;14.45;11.20;;;9.60;99.90;;;;;;4993666;28;20038;-60